Decoded Metar for UKLU (UZHGOROD in UKRAINE) (IATA:UDJ) | Meteo·Mobile Aviation Weather
aviador You're here:

UKLU Decoded Metar

UZHGOROD in UKRAINE
Report Time2018-10-17 03:00:00
UTC Time2018-10-17 03:21:56
Flight Rules vfr VFR
WindCalm
Visibility9999 m
Phenomena:N/A
Clouds:N/A
CeilingNone
Temp02°C (ISA -12)
Dew Point02°C (100% RH)
AAT0.3°C
QNH1023 hPa
Density Alt-1,345 ft
Elevation384 ft
Report Wrong Elevation
Raw Report
UKLU 170300Z 00000MPS 9999 NSC 02/02 Q1023 NOSIG=

Extra information for UKLU:More info

Metar Taf Metar & Taf Last 4 Metars F.Rules Stats Wind Profile Meteogram Temp Stats Airport Information Weather charts Add Link Nearby VenuesMetar ALERT Operation Metar Decoded Social comments